Time;durP1;ratioP1;P1;durP2;ratioP2;P2;SDS_P1;SDS_P2;PMS_P1;PMS_P2;Temp;Humidity;BMP_temperature;BMP_pressure;BME280_temperature;BME280_humidity;BME280_pressure;Samples;Min_cycle;Max_cycle;Signal;HPM_P1;HPM_P2
2023/11/04 00:02:22;;;;;;;4.10;2.90;;;22.20;95.70;;;;;;5023083;28;20484;-65
2023/11/04 00:04:51;;;;;;;6.00;3.80;;;22.20;95.70;;;;;;5020183;28;20469;-67
2023/11/04 00:07:18;;;;;;;4.27;3.30;;;22.20;95.70;;;;;;5017533;28;20486;-63
2023/11/04 00:09:45;;;;;;;3.57;3.13;;;22.20;95.60;;;;;;5012798;28;20457;-63
2023/11/04 00:12:16;;;;;;;3.57;2.67;;;22.20;95.60;;;;;;5026196;28;20560;-65
2023/11/04 00:14:43;;;;;;;5.43;2.90;;;22.20;95.60;;;;;;5020337;28;20571;-65
2023/11/04 00:17:09;;;;;;;4.63;3.07;;;22.20;95.60;;;;;;5019621;28;20480;-65
2023/11/04 00:19:37;;;;;;;6.00;3.40;;;22.20;95.60;;;;;;5020542;28;20454;-64
2023/11/04 00:22:05;;;;;;;3.60;2.57;;;22.20;95.60;;;;;;5020543;28;20463;-63
2023/11/04 00:24:31;;;;;;;4.07;3.50;;;22.20;95.60;;;;;;5023539;28;20453;-64
2023/11/04 00:26:58;;;;;;;3.47;2.50;;;22.10;95.50;;;;;;5024862;28;20974;-66
2023/11/04 00:29:25;;;;;;;3.43;2.83;;;22.10;95.50;;;;;;5025448;28;20454;-63
2023/11/04 00:31:52;;;;;;;3.37;2.10;;;22.10;95.50;;;;;;5023740;28;20466;-63
2023/11/04 00:34:19;;;;;;;3.60;2.90;;;22.10;95.50;;;;;;5025789;28;20573;-65
2023/11/04 00:36:47;;;;;;;3.43;2.93;;;22.10;95.50;;;;;;5025558;28;20994;-65
2023/11/04 00:39:14;;;;;;;5.93;2.70;;;22.10;95.50;;;;;;5026809;28;20470;-66
2023/11/04 00:41:43;;;;;;;5.80;3.07;;;22.10;95.50;;;;;;5025197;28;20908;-65
2023/11/04 00:44:09;;;;;;;8.90;4.40;;;22.10;95.50;;;;;;5026852;28;20610;-62
2023/11/04 00:46:38;;;;;;;3.13;2.50;;;22.00;95.40;;;;;;5025227;28;20499;-66
2023/11/04 00:49:05;;;;;;;4.33;2.77;;;22.00;95.40;;;;;;5028571;28;20466;-64
2023/11/04 00:51:32;;;;;;;3.90;2.57;;;22.00;95.40;;;;;;5030624;28;20457;-63
2023/11/04 00:54:00;;;;;;;3.33;2.23;;;22.10;95.40;;;;;;5028694;28;20460;-67
2023/11/04 00:56:26;;;;;;;2.63;2.40;;;22.00;95.40;;;;;;5027498;28;20570;-65
2023/11/04 00:58:53;;;;;;;3.43;2.70;;;22.00;95.40;;;;;;5028681;28;20461;-64
2023/11/04 01:01:20;;;;;;;4.00;2.30;;;22.00;95.40;;;;;;5030136;28;20462;-67
2023/11/04 01:03:46;;;;;;;4.17;2.67;;;22.00;95.40;;;;;;5027901;28;20478;-66
2023/11/04 01:06:13;;;;;;;4.33;2.57;;;22.00;95.30;;;;;;5026698;28;20473;-64
2023/11/04 01:08:40;;;;;;;2.50;2.30;;;21.90;95.30;;;;;;5026646;28;20454;-64
2023/11/04 01:11:08;;;;;;;3.50;2.37;;;21.90;95.20;;;;;;5026752;28;20476;-66
2023/11/04 01:13:35;;;;;;;3.37;2.40;;;21.90;95.20;;;;;;5023462;28;20815;-67
2023/11/04 01:16:02;;;;;;;5.10;3.50;;;21.90;95.20;;;;;;5019534;28;21082;-66
2023/11/04 01:18:29;;;;;;;2.80;2.50;;;21.90;95.20;;;;;;5019954;28;20484;-63
2023/11/04 01:20:55;;;;;;;3.43;2.87;;;21.90;95.20;;;;;;5022260;28;20458;-65
2023/11/04 01:23:22;;;;;;;4.50;2.63;;;21.90;95.20;;;;;;5021429;28;20470;-66
2023/11/04 01:25:49;;;;;;;3.13;2.30;;;21.90;95.20;;;;;;5021786;28;20477;-64
2023/11/04 01:28:17;;;;;;;2.80;2.10;;;21.90;95.20;;;;;;5023277;28;20485;-67
2023/11/04 01:30:44;;;;;;;3.37;2.60;;;21.80;95.10;;;;;;5024002;28;20458;-65
2023/11/04 01:33:11;;;;;;;2.93;2.63;;;21.80;95.10;;;;;;5028480;28;20484;-66
2023/11/04 01:35:37;;;;;;;3.37;2.40;;;21.80;95.10;;;;;;5023264;28;20488;-63
2023/11/04 01:38:04;;;;;;;2.97;2.40;;;21.80;95.10;;;;;;5022247;28;20464;-67
2023/11/04 01:40:31;;;;;;;3.90;2.53;;;21.80;95.10;;;;;;5024362;28;20461;-67
2023/11/04 01:42:58;;;;;;;2.83;2.27;;;21.80;95.10;;;;;;5024176;28;20462;-67
2023/11/04 01:45:26;;;;;;;3.33;2.10;;;21.80;95.10;;;;;;5023392;28;20458;-66
2023/11/04 01:47:53;;;;;;;3.00;2.40;;;21.80;95.10;;;;;;5024263;28;20462;-66
2023/11/04 01:50:20;;;;;;;5.17;2.30;;;21.80;95.10;;;;;;5026719;28;20469;-67
2023/11/04 01:52:47;;;;;;;4.93;2.50;;;21.70;95.00;;;;;;5024391;28;20464;-67
2023/11/04 01:55:15;;;;;;;2.80;2.20;;;21.70;95.00;;;;;;5022907;28;20461;-68
2023/11/04 01:57:42;;;;;;;9.23;1.90;;;21.70;95.00;;;;;;5022945;28;20621;-68
2023/11/04 02:00:10;;;;;;;3.90;2.20;;;21.70;95.00;;;;;;5023305;28;20984;-68
2023/11/04 02:02:39;;;;;;;2.80;2.13;;;21.70;95.00;;;;;;5038081;22;21084;-58
2023/11/04 02:05:06;;;;;;;3.77;2.40;;;21.70;95.00;;;;;;5020822;28;20458;-58
2023/11/04 02:07:33;;;;;;;3.90;2.50;;;21.70;95.00;;;;;;5020607;28;20962;-52
2023/11/04 02:09:59;;;;;;;3.90;2.00;;;21.70;95.10;;;;;;5024019;28;20468;-56
2023/11/04 02:12:26;;;;;;;3.37;2.10;;;21.70;95.10;;;;;;5023234;28;20459;-53
2023/11/04 02:14:54;;;;;;;1.90;1.70;;;21.70;95.10;;;;;;5022064;28;20451;-56
2023/11/04 02:17:21;;;;;;;2.20;1.90;;;21.60;95.00;;;;;;5024937;28;20908;-56
2023/11/04 02:19:49;;;;;;;2.77;2.00;;;21.60;95.00;;;;;;5026900;28;20850;-55
2023/11/04 02:22:17;;;;;;;4.23;1.80;;;21.60;95.00;;;;;;5027855;28;20458;-55
2023/11/04 02:24:44;;;;;;;4.10;2.50;;;21.60;95.00;;;;;;5023579;28;20819;-56
2023/11/04 02:27:11;;;;;;;2.97;1.97;;;21.60;95.00;;;;;;5027999;28;20504;-53
2023/11/04 02:29:38;;;;;;;2.67;2.00;;;21.60;95.00;;;;;;5027752;28;20990;-55
2023/11/04 02:32:06;;;;;;;2.63;2.17;;;21.60;94.90;;;;;;5026919;28;20461;-56
2023/11/04 02:34:32;;;;;;;2.60;2.30;;;21.60;94.90;;;;;;5023892;28;20469;-55
2023/11/04 02:37:00;;;;;;;2.40;1.80;;;21.60;94.90;;;;;;5029241;28;20473;-53
2023/11/04 02:39:28;;;;;;;2.93;2.07;;;21.60;94.90;;;;;;5030129;28;21107;-55
2023/11/04 02:41:55;;;;;;;2.60;1.93;;;21.60;94.90;;;;;;5028005;28;20924;-51
2023/11/04 02:44:21;;;;;;;4.30;2.20;;;21.60;94.90;;;;;;5031647;28;20467;-51
2023/11/04 02:46:48;;;;;;;2.20;1.93;;;21.60;94.90;;;;;;5029556;28;20815;-56
2023/11/04 02:49:15;;;;;;;3.30;2.40;;;21.60;94.80;;;;;;5029649;28;20470;-57
2023/11/04 02:51:42;;;;;;;3.07;1.60;;;21.50;94.80;;;;;;5029773;28;21634;-57
2023/11/04 02:54:09;;;;;;;3.23;1.90;;;21.50;94.80;;;;;;5031024;28;20455;-57
2023/11/04 02:56:37;;;;;;;2.80;1.83;;;21.50;94.80;;;;;;5020721;28;20478;-56
2023/11/04 02:59:04;;;;;;;2.83;1.90;;;21.50;94.80;;;;;;5025702;28;20468;-55
2023/11/04 03:01:31;;;;;;;2.40;2.17;;;21.50;94.80;;;;;;5024248;28;20460;-58
2023/11/04 03:03:59;;;;;;;2.40;1.63;;;21.50;94.80;;;;;;5024042;28;20536;-56
2023/11/04 03:06:26;;;;;;;3.60;2.27;;;21.50;94.70;;;;;;5024933;28;20543;-58
2023/11/04 03:08:53;;;;;;;2.43;1.77;;;21.50;94.70;;;;;;5018934;28;20476;-58
2023/11/04 03:11:21;;;;;;;2.43;1.93;;;21.50;94.70;;;;;;5021514;28;20470;-55
2023/11/04 03:17:11;;;;;;;3.17;1.87;;;21.50;94.70;;;;;;5005928;28;20563;-58
2023/11/04 03:19:38;;;;;;;2.33;1.90;;;21.50;94.70;;;;;;5021140;28;21459;-58
2023/11/04 03:22:04;;;;;;;2.03;1.73;;;21.40;94.60;;;;;;5018277;28;20798;-56
2023/11/04 03:24:31;;;;;;;2.57;2.37;;;21.40;94.60;;;;;;5020649;28;20971;-58
2023/11/04 03:26:58;;;;;;;3.40;1.53;;;21.50;94.60;;;;;;5019325;28;20468;-58
2023/11/04 03:29:25;;;;;;;2.50;2.30;;;21.50;94.70;;;;;;5021248;28;20469;-57
2023/11/04 03:31:52;;;;;;;2.73;2.07;;;21.40;94.60;;;;;;5023402;28;20499;-56
2023/11/04 03:34:20;;;;;;;4.20;2.40;;;21.40;94.50;;;;;;5022288;28;20990;-58
2023/11/04 03:36:47;;;;;;;3.30;2.03;;;21.40;94.50;;;;;;5021376;28;20743;-57
2023/11/04 03:39:14;;;;;;;3.03;1.83;;;21.40;94.50;;;;;;5020130;28;20472;-59
2023/11/04 03:41:41;;;;;;;2.20;1.50;;;21.40;94.50;;;;;;5021434;28;20463;-59
2023/11/04 03:44:07;;;;;;;1.70;1.30;;;21.40;94.50;;;;;;5024118;28;20473;-58
2023/11/04 03:46:34;;;;;;;2.20;1.77;;;21.40;94.50;;;;;;5022395;28;20477;-53
2023/11/04 03:49:01;;;;;;;1.93;1.53;;;21.40;94.50;;;;;;5023475;28;20462;-57
2023/11/04 03:51:29;;;;;;;2.37;2.00;;;21.40;94.50;;;;;;5026339;28;20454;-57
2023/11/04 03:53:56;;;;;;;1.70;1.55;;;21.40;94.50;;;;;;5022804;28;20457;-57
2023/11/04 03:56:23;;;;;;;2.47;1.63;;;21.30;94.40;;;;;;5023981;28;20262;-58
2023/11/04 03:58:49;;;;;;;2.73;1.90;;;21.30;94.40;;;;;;5020974;28;20195;-58
2023/11/04 04:01:16;;;;;;;1.70;1.60;;;21.30;94.40;;;;;;5023949;28;20458;-56
2023/11/04 04:03:43;;;;;;;3.20;1.70;;;21.30;94.50;;;;;;5022162;28;20948;-57
2023/11/04 04:06:10;;;;;;;3.43;2.30;;;21.30;94.50;;;;;;5023852;28;20463;-55
2023/11/04 04:08:38;;;;;;;3.47;1.90;;;21.30;94.60;;;;;;5027632;28;20468;-52
2023/11/04 04:11:05;;;;;;;2.00;1.80;;;21.30;94.50;;;;;;5026013;28;20454;-56
2023/11/04 04:13:32;;;;;;;1.90;1.50;;;21.30;94.50;;;;;;5021472;28;20772;-53
2023/11/04 04:16:00;;;;;;;2.37;1.83;;;21.30;94.50;;;;;;5021712;28;20481;-57
2023/11/04 04:18:26;;;;;;;2.73;1.73;;;21.30;94.50;;;;;;5022953;28;20486;-55
2023/11/04 04:20:53;;;;;;;2.20;2.00;;;21.30;94.50;;;;;;5027102;28;20738;-57
2023/11/04 04:23:20;;;;;;;1.90;1.70;;;21.30;94.50;;;;;;5028903;28;20462;-57
2023/11/04 04:25:48;;;;;;;2.53;1.73;;;21.30;94.50;;;;;;5025475;28;20467;-56
2023/11/04 04:28:15;;;;;;;2.23;1.90;;;21.30;94.40;;;;;;5025974;28;20439;-56
2023/11/04 04:30:43;;;;;;;1.60;1.40;;;21.30;94.40;;;;;;5024152;28;20453;-58
2023/11/04 04:33:10;;;;;;;3.03;1.60;;;21.30;94.40;;;;;;5029731;28;20465;-57
2023/11/04 04:35:37;;;;;;;2.53;1.73;;;21.20;94.40;;;;;;5025185;28;21055;-58
2023/11/04 04:38:04;;;;;;;2.00;1.65;;;21.30;94.40;;;;;;5030161;28;20818;-58
2023/11/04 04:40:30;;;;;;;2.20;2.00;;;21.20;94.30;;;;;;5026932;28;20306;-57
2023/11/04 04:42:58;;;;;;;2.63;2.10;;;21.20;94.30;;;;;;5022976;28;20457;-57
2023/11/04 04:45:25;;;;;;;2.13;1.70;;;21.20;94.30;;;;;;5026279;28;21006;-55
2023/11/04 04:47:52;;;;;;;2.00;1.53;;;21.20;94.30;;;;;;5021292;28;20491;-57
2023/11/04 04:50:19;;;;;;;1.80;1.60;;;21.20;94.30;;;;;;5022908;28;20457;-58
2023/11/04 04:52:47;;;;;;;2.83;1.40;;;21.20;94.30;;;;;;5026736;28;20254;-57
2023/11/04 04:55:14;;;;;;;4.97;1.50;;;21.20;94.30;;;;;;5022291;28;20639;-59
2023/11/04 04:57:40;;;;;;;2.80;1.60;;;21.20;94.30;;;;;;5021140;28;21075;-58
2023/11/04 05:00:10;;;;;;;2.43;1.60;;;21.20;94.30;;;;;;5022012;28;20454;-58
2023/11/04 05:02:37;;;;;;;1.80;1.40;;;21.20;94.30;;;;;;5021754;28;20462;-57
2023/11/04 05:05:04;;;;;;;2.33;1.60;;;21.20;94.30;;;;;;5019665;28;20458;-57
2023/11/04 05:07:30;;;;;;;2.13;1.40;;;21.20;94.30;;;;;;5021450;28;20466;-57
2023/11/04 05:09:57;;;;;;;1.73;1.30;;;21.20;94.30;;;;;;5022457;28;20207;-58
2023/11/04 05:12:24;;;;;;;2.50;1.93;;;21.10;94.20;;;;;;5022128;28;21044;-55
2023/11/04 05:14:51;;;;;;;1.58;1.20;;;21.20;94.20;;;;;;5023866;28;20540;-55
2023/11/04 05:17:19;;;;;;;1.83;1.30;;;21.10;94.20;;;;;;5019391;28;20724;-54
2023/11/04 05:19:47;;;;;;;1.83;1.27;;;21.10;94.20;;;;;;5022245;28;20663;-57
2023/11/04 05:22:14;;;;;;;2.17;1.50;;;21.10;94.20;;;;;;5024392;28;20467;-57
2023/11/04 05:24:41;;;;;;;2.97;1.87;;;21.10;94.20;;;;;;5022879;28;20459;-56
2023/11/04 05:27:08;;;;;;;1.47;1.17;;;21.10;94.10;;;;;;5023742;28;20460;-57
2023/11/04 05:29:34;;;;;;;2.30;1.38;;;21.10;94.50;;;;;;5023468;28;20469;-59
2023/11/04 05:32:01;;;;;;;1.80;1.45;;;21.10;94.10;;;;;;5021875;28;20197;-56
2023/11/04 05:34:29;;;;;;;3.10;2.00;;;21.10;94.10;;;;;;5021824;28;20492;-58
2023/11/04 05:36:56;;;;;;;1.70;1.42;;;21.10;94.10;;;;;;5022787;28;20556;-54
2023/11/04 05:39:23;;;;;;;2.60;1.37;;;21.10;94.10;;;;;;5024003;28;20555;-57
2023/11/04 05:41:49;;;;;;;1.70;1.60;;;21.10;94.10;;;;;;5025052;28;20465;-54
2023/11/04 05:44:16;;;;;;;1.70;1.37;;;21.10;94.10;;;;;;5025273;28;20463;-58
2023/11/04 05:46:46;;;;;;;1.80;1.30;;;21.10;94.10;;;;;;5022904;28;20489;-57
2023/11/04 05:49:13;;;;;;;2.37;1.57;;;21.10;94.10;;;;;;5025580;28;20201;-57
2023/11/04 05:51:41;;;;;;;1.98;1.40;;;21.00;94.10;;;;;;5029379;28;20462;-56
2023/11/04 05:54:11;;;;;;;2.10;1.85;;;21.00;94.00;;;;;;5029527;28;20794;-56
2023/11/04 05:56:38;;;;;;;1.73;1.10;;;21.00;94.00;;;;;;5030312;28;20508;-58
2023/11/04 05:59:05;;;;;;;2.03;1.40;;;21.00;94.00;;;;;;5029239;28;20422;-56
2023/11/04 06:01:32;;;;;;;1.67;1.37;;;21.00;94.00;;;;;;5026236;28;20468;-57
2023/11/04 06:03:58;;;;;;;1.67;1.33;;;21.00;94.00;;;;;;5028787;28;20454;-57
2023/11/04 06:06:25;;;;;;;2.38;1.40;;;21.00;94.00;;;;;;5026065;28;20461;-59
2023/11/04 06:08:53;;;;;;;1.90;1.10;;;21.00;94.00;;;;;;5024671;28;20317;-57
2023/11/04 06:11:20;;;;;;;2.40;1.55;;;21.00;94.00;;;;;;5027751;28;20210;-57
2023/11/04 06:13:47;;;;;;;1.52;1.35;;;21.00;94.00;;;;;;5028845;28;20207;-56
2023/11/04 06:16:13;;;;;;;1.50;1.20;;;21.00;94.10;;;;;;5027483;28;20208;-58
2023/11/04 06:18:40;;;;;;;4.50;2.10;;;21.00;94.10;;;;;;5028584;28;20502;-56
2023/11/04 06:21:07;;;;;;;1.67;1.23;;;21.00;94.10;;;;;;5038421;28;20464;-58
2023/11/04 06:23:34;;;;;;;2.30;1.40;;;21.00;94.10;;;;;;5026458;28;20215;-56
2023/11/04 06:26:02;;;;;;;1.73;1.30;;;21.00;94.10;;;;;;5024888;28;20215;-57
2023/11/04 06:28:29;;;;;;;2.60;1.50;;;21.10;94.10;;;;;;5025861;28;20196;-57
2023/11/04 06:30:55;;;;;;;2.10;1.52;;;21.00;94.10;;;;;;5024183;28;20245;-56
2023/11/04 06:33:22;;;;;;;2.07;1.30;;;21.00;94.10;;;;;;5023376;28;20202;-57
2023/11/04 06:35:49;;;;;;;1.53;1.43;;;21.00;94.10;;;;;;5025817;28;20458;-56
2023/11/04 06:38:16;;;;;;;2.08;1.40;;;21.00;94.00;;;;;;5025600;28;20820;-56
2023/11/04 06:40:42;;;;;;;2.27;1.57;;;21.00;94.00;;;;;;5029661;28;20202;-55
2023/11/04 06:43:10;;;;;;;4.00;1.57;;;21.00;94.00;;;;;;5033013;28;20506;-59
2023/11/04 06:45:37;;;;;;;1.90;1.23;;;21.00;94.00;;;;;;5027636;28;21004;-57
2023/11/04 06:48:05;;;;;;;1.90;1.20;;;21.00;94.00;;;;;;5032025;28;20472;-59
2023/11/04 06:50:32;;;;;;;1.67;1.23;;;21.00;94.00;;;;;;5028780;28;20471;-56
2023/11/04 06:53:00;;;;;;;2.30;1.80;;;21.00;94.00;;;;;;5029019;28;20225;-58
2023/11/04 06:55:27;;;;;;;1.63;1.48;;;21.00;94.00;;;;;;5032940;28;20458;-57
2023/11/04 06:57:54;;;;;;;8.23;2.10;;;21.00;94.00;;;;;;5028592;28;20337;-54
2023/11/04 07:00:23;;;;;;;1.40;1.10;;;21.00;94.10;;;;;;5027300;28;20573;-57
2023/11/04 07:02:50;;;;;;;3.08;1.15;;;20.90;94.00;;;;;;5028045;28;20499;-56
2023/11/04 07:05:17;;;;;;;1.67;1.15;;;20.90;94.00;;;;;;5026055;28;20192;-55
2023/11/04 07:07:44;;;;;;;1.63;1.10;;;20.90;94.00;;;;;;5026052;28;20188;-54
2023/11/04 07:10:12;;;;;;;1.75;1.25;;;20.90;94.00;;;;;;5028201;28;20199;-55
2023/11/04 07:12:39;;;;;;;2.78;1.30;;;20.90;94.00;;;;;;5029645;28;20692;-58
2023/11/04 07:15:07;;;;;;;1.33;1.08;;;20.90;94.00;;;;;;5030969;28;20203;-56
2023/11/04 07:17:36;;;;;;;1.42;1.27;;;20.90;94.10;;;;;;5026538;28;20222;-55
2023/11/04 07:20:04;;;;;;;1.60;1.20;;;20.90;94.00;;;;;;5020619;28;20195;-56
2023/11/04 07:22:31;;;;;;;1.50;1.30;;;20.90;94.10;;;;;;5024171;28;20559;-57
2023/11/04 07:24:58;;;;;;;1.30;1.00;;;20.90;94.10;;;;;;5025679;28;20200;-57
2023/11/04 07:27:25;;;;;;;2.88;1.30;;;20.90;94.20;;;;;;5029539;28;20579;-55
2023/11/04 07:29:51;;;;;;;1.83;1.20;;;20.90;94.60;;;;;;5026299;28;20305;-54
2023/11/04 07:32:18;;;;;;;1.42;1.27;;;20.90;94.60;;;;;;5024619;28;20499;-56
2023/11/04 07:34:47;;;;;;;1.23;1.02;;;20.90;94.30;;;;;;5023750;28;20199;-54
2023/11/04 07:37:14;;;;;;;1.52;1.40;;;21.00;94.40;;;;;;5023571;28;20209;-53
2023/11/04 07:39:41;;;;;;;1.65;1.55;;;21.00;94.40;;;;;;5021630;28;20202;-55
2023/11/04 07:42:08;;;;;;;1.80;1.30;;;21.00;94.40;;;;;;5022875;28;20214;-56
2023/11/04 07:44:35;;;;;;;1.40;1.23;;;21.00;94.40;;;;;;5028747;28;20210;-55
2023/11/04 07:47:03;;;;;;;1.48;1.20;;;21.00;94.50;;;;;;5024427;28;20999;-56
2023/11/04 07:49:29;;;;;;;2.10;1.30;;;21.00;94.50;;;;;;5027463;28;21142;-55
2023/11/04 07:51:58;;;;;;;1.27;1.10;;;21.00;94.50;;;;;;5025724;28;20460;-54
2023/11/04 07:54:25;;;;;;;1.40;1.30;;;21.00;94.40;;;;;;5027226;28;20489;-55
2023/11/04 07:56:52;;;;;;;1.70;1.30;;;21.00;94.50;;;;;;5024022;28;20218;-55
2023/11/04 07:59:19;;;;;;;1.75;1.00;;;21.00;94.50;;;;;;5026252;28;20488;-56
2023/11/04 08:01:46;;;;;;;1.30;1.20;;;21.00;94.50;;;;;;5019529;28;20226;-56
2023/11/04 08:04:13;;;;;;;1.50;1.30;;;21.10;94.50;;;;;;5019645;28;20873;-52
2023/11/04 08:06:39;;;;;;;1.70;1.20;;;21.10;94.50;;;;;;5027657;28;20461;-52
2023/11/04 08:09:08;;;;;;;1.60;1.20;;;21.10;94.50;;;;;;5026963;28;20478;-56
2023/11/04 08:11:35;;;;;;;1.53;1.10;;;21.10;94.50;;;;;;5020577;28;20592;-57
2023/11/04 08:14:02;;;;;;;1.50;1.33;;;21.10;94.50;;;;;;5023619;28;20459;-56
2023/11/04 08:16:29;;;;;;;2.03;1.30;;;21.10;94.60;;;;;;5024953;28;20462;-56
2023/11/04 08:18:56;;;;;;;1.60;1.00;;;21.10;94.60;;;;;;5024771;28;20481;-57
2023/11/04 08:21:23;;;;;;;2.33;1.53;;;21.10;94.70;;;;;;5021399;28;20458;-55
2023/11/04 08:23:50;;;;;;;4.10;1.23;;;21.10;94.70;;;;;;5022778;28;20554;-56
2023/11/04 08:26:18;;;;;;;2.17;1.20;;;21.10;94.70;;;;;;5027472;28;20878;-54
2023/11/04 08:28:45;;;;;;;1.50;1.03;;;21.10;94.80;;;;;;5026228;28;20467;-58
2023/11/04 08:31:13;;;;;;;1.40;1.30;;;21.10;94.80;;;;;;5025780;28;20473;-55
2023/11/04 08:33:40;;;;;;;1.87;1.33;;;21.20;94.80;;;;;;5016763;28;20458;-58
2023/11/04 08:36:09;;;;;;;1.35;0.93;;;21.20;94.80;;;;;;5027839;28;20458;-56
2023/11/04 08:38:36;;;;;;;2.33;1.37;;;21.20;94.80;;;;;;5023683;28;20238;-56
2023/11/04 08:41:03;;;;;;;1.00;0.83;;;21.20;94.70;;;;;;5025618;28;20496;-56
2023/11/04 08:43:31;;;;;;;1.30;1.10;;;21.20;94.70;;;;;;5024778;28;20461;-57
2023/11/04 08:45:58;;;;;;;1.30;1.03;;;21.20;94.70;;;;;;5027033;28;20943;-57
2023/11/04 08:48:25;;;;;;;1.30;1.10;;;21.20;94.70;;;;;;5026330;28;20558;-56
2023/11/04 08:50:51;;;;;;;1.30;1.20;;;21.20;94.70;;;;;;5022908;28;20203;-56
2023/11/04 08:53:18;;;;;;;1.70;1.20;;;21.20;94.70;;;;;;5025328;28;20969;-56
2023/11/04 08:55:45;;;;;;;1.97;1.20;;;21.20;94.60;;;;;;5024128;28;20467;-53
2023/11/04 08:58:11;;;;;;;1.67;1.07;;;21.20;94.60;;;;;;5026759;28;20636;-54
2023/11/04 09:00:40;;;;;;;1.60;1.10;;;21.20;94.60;;;;;;5024019;28;20461;-56
2023/11/04 09:03:08;;;;;;;3.87;1.83;;;21.30;94.60;;;;;;5019230;28;20481;-54
2023/11/04 09:05:35;;;;;;;1.33;1.03;;;21.30;94.60;;;;;;5023929;28;20506;-56
2023/11/04 09:08:01;;;;;;;1.30;1.00;;;21.30;94.60;;;;;;5025852;28;20480;-56
2023/11/04 09:10:28;;;;;;;1.40;0.90;;;21.30;94.50;;;;;;5024056;28;20463;-55
2023/11/04 09:12:56;;;;;;;1.67;1.10;;;21.30;94.60;;;;;;5021206;28;20783;-53
2023/11/04 09:15:23;;;;;;;4.07;1.00;;;21.30;94.60;;;;;;5023900;28;21454;-55
2023/11/04 09:17:51;;;;;;;1.73;1.37;;;21.30;94.40;;;;;;5022224;28;20465;-57
2023/11/04 09:20:18;;;;;;;1.50;1.00;;;21.30;94.30;;;;;;5025288;28;20458;-60
2023/11/04 09:22:45;;;;;;;1.23;0.97;;;21.30;94.30;;;;;;5016693;28;20466;-58
2023/11/04 09:25:13;;;;;;;1.80;1.30;;;21.30;94.40;;;;;;5018483;28;20473;-58
2023/11/04 09:27:39;;;;;;;2.13;1.30;;;21.30;94.50;;;;;;5018149;28;20502;-60
2023/11/04 09:30:08;;;;;;;2.03;1.00;;;21.30;94.70;;;;;;5019636;28;20822;-58
2023/11/04 09:32:35;;;;;;;2.57;1.10;;;21.30;94.80;;;;;;5017387;28;20558;-56
2023/11/04 09:35:04;;;;;;;1.20;0.90;;;21.30;95.00;;;;;;5022005;28;20488;-58
2023/11/04 09:37:30;;;;;;;1.23;1.03;;;21.40;95.10;;;;;;5023701;28;20458;-57
2023/11/04 09:39:57;;;;;;;1.17;0.90;;;21.40;95.20;;;;;;5024808;28;20488;-55
2023/11/04 09:42:26;;;;;;;1.30;1.10;;;21.40;95.30;;;;;;5023018;28;20458;-57
2023/11/04 09:44:53;;;;;;;1.23;1.00;;;21.40;95.40;;;;;;5022899;28;20459;-59
2023/11/04 09:47:19;;;;;;;2.90;1.00;;;21.40;95.40;;;;;;5023074;28;20469;-54
2023/11/04 09:49:48;;;;;;;1.33;1.00;;;21.50;95.50;;;;;;5021865;28;20461;-56
2023/11/04 09:52:16;;;;;;;1.00;0.90;;;21.50;96.00;;;;;;5024434;28;20466;-56
2023/11/04 09:54:46;;;;;;;1.50;1.10;;;21.50;96.00;;;;;;5023889;28;20694;-59
2023/11/04 09:57:13;;;;;;;2.27;1.00;;;21.50;95.70;;;;;;5024320;28;20457;-58
2023/11/04 09:59:40;;;;;;;1.20;0.87;;;21.50;95.70;;;;;;5022648;28;20484;-59
2023/11/04 10:02:10;;;;;;;1.07;0.87;;;21.60;95.70;;;;;;5027668;28;20469;-58
2023/11/04 10:04:37;;;;;;;1.60;0.90;;;21.60;95.70;;;;;;5030330;28;20487;-59
2023/11/04 10:07:03;;;;;;;1.30;1.10;;;21.60;95.70;;;;;;5026955;28;20461;-58
2023/11/04 10:09:32;;;;;;;1.37;1.00;;;21.70;95.70;;;;;;5022250;28;20564;-54
2023/11/04 10:12:00;;;;;;;1.00;0.80;;;21.70;95.70;;;;;;5028338;28;20798;-57
2023/11/04 10:14:27;;;;;;;1.10;0.90;;;21.70;95.70;;;;;;5021176;28;20585;-58
2023/11/04 10:16:54;;;;;;;1.60;1.20;;;21.80;95.70;;;;;;5024909;28;20691;-59
2023/11/04 10:19:21;;;;;;;1.57;0.87;;;21.80;95.70;;;;;;5024961;28;20583;-59
2023/11/04 10:21:50;;;;;;;1.27;1.10;;;21.80;95.70;;;;;;5026320;28;20980;-60
2023/11/04 10:24:17;;;;;;;1.30;1.00;;;21.80;95.70;;;;;;5024867;28;20457;-58
2023/11/04 10:26:45;;;;;;;1.33;0.97;;;21.90;96.00;;;;;;5029314;28;20458;-57
2023/11/04 10:29:12;;;;;;;2.13;1.30;;;21.90;95.70;;;;;;5027482;28;20472;-56
2023/11/04 10:31:42;;;;;;;1.53;0.90;;;21.90;95.60;;;;;;5029279;28;20644;-54
2023/11/04 10:34:12;;;;;;;1.00;0.80;;;21.90;95.60;;;;;;5028765;28;20441;-57
2023/11/04 10:36:39;;;;;;;1.10;0.87;;;22.00;95.60;;;;;;5030081;28;20452;-56
2023/11/04 10:39:07;;;;;;;2.03;1.10;;;22.00;95.60;;;;;;5024916;28;20486;-54
2023/11/04 10:41:42;;;;;;;1.97;1.10;;;22.00;95.50;;;;;;5027386;28;20469;-56
2023/11/04 10:44:15;;;;;;;1.40;1.00;;;22.00;95.50;;;;;;5024808;28;20457;-54
2023/11/04 10:46:50;;;;;;;1.20;0.90;;;22.00;95.50;;;;;;5022369;28;20956;-60
2023/11/04 10:49:23;;;;;;;1.33;0.90;;;22.00;95.50;;;;;;5023243;28;20818;-56
2023/11/04 10:51:55;;;;;;;1.20;0.77;;;22.10;95.50;;;;;;5023731;28;20455;-57
2023/11/04 10:54:29;;;;;;;1.33;0.90;;;22.10;95.50;;;;;;5021707;28;20458;-57
2023/11/04 10:57:03;;;;;;;1.10;0.97;;;22.10;95.40;;;;;;5021572;28;20453;-57
2023/11/04 10:59:39;;;;;;;1.20;0.90;;;22.10;95.30;;;;;;5026121;28;20465;-62
2023/11/04 11:02:08;;;;;;;0.93;0.80;;;22.10;95.50;;;;;;5020824;28;20457;-59
2023/11/04 11:04:36;;;;;;;1.20;0.90;;;22.10;95.40;;;;;;5024993;28;20815;-55
2023/11/04 11:07:05;;;;;;;1.67;1.10;;;22.10;95.30;;;;;;5024797;28;21336;-57
2023/11/04 11:09:32;;;;;;;1.27;0.93;;;22.20;95.30;;;;;;5026562;28;20462;-55
2023/11/04 11:12:07;;;;;;;1.87;0.83;;;22.20;95.30;;;;;;5020862;28;20465;-57
2023/11/04 11:14:35;;;;;;;1.10;0.80;;;22.20;95.20;;;;;;5024167;28;20462;-57
2023/11/04 11:17:02;;;;;;;1.40;1.03;;;22.20;95.60;;;;;;5022688;28;20492;-57
2023/11/04 11:19:33;;;;;;;3.00;0.87;;;22.20;95.20;;;;;;5023077;28;21101;-59
2023/11/04 11:22:02;;;;;;;2.10;1.23;;;22.20;95.20;;;;;;5027084;28;20662;-59
2023/11/04 11:24:29;;;;;;;1.30;0.93;;;22.20;95.20;;;;;;5022782;28;20541;-56
2023/11/04 11:27:00;;;;;;;1.33;1.00;;;22.20;95.20;;;;;;5021408;28;20794;-55
2023/11/04 11:29:27;;;;;;;1.37;0.87;;;22.20;95.10;;;;;;5023712;28;20485;-56
2023/11/04 11:32:06;;;;;;;1.50;1.17;;;22.20;95.10;;;;;;5024677;28;20836;-56
2023/11/04 11:34:33;;;;;;;2.27;0.83;;;22.30;95.20;;;;;;5021938;28;20445;-54
2023/11/04 11:37:00;;;;;;;1.83;0.97;;;22.30;95.10;;;;;;5024981;28;20464;-55
2023/11/04 11:39:28;;;;;;;1.40;0.90;;;22.30;95.10;;;;;;5021793;28;20469;-56
2023/11/04 11:41:56;;;;;;;1.10;0.80;;;22.30;95.10;;;;;;5026330;28;20459;-60
2023/11/04 11:44:23;;;;;;;1.70;0.83;;;22.30;95.00;;;;;;5026564;28;20462;-56
2023/11/04 11:46:54;;;;;;;3.43;0.83;;;22.30;95.10;;;;;;5025774;28;20987;-57
2023/11/04 11:49:22;;;;;;;1.50;1.00;;;22.30;95.10;;;;;;5023879;28;20549;-60
2023/11/04 11:51:49;;;;;;;1.43;0.90;;;22.30;95.10;;;;;;5019775;28;21032;-56
2023/11/04 11:54:16;;;;;;;1.10;0.80;;;22.40;95.10;;;;;;5029152;28;20477;-60
2023/11/04 11:56:43;;;;;;;1.70;1.03;;;22.30;95.00;;;;;;5029100;28;20908;-56
2023/11/04 11:59:10;;;;;;;1.20;1.00;;;22.40;95.10;;;;;;5026935;28;20482;-61
2023/11/04 12:01:38;;;;;;;1.40;1.00;;;22.30;95.00;;;;;;5020360;28;20469;-60
2023/11/04 12:04:05;;;;;;;1.33;1.07;;;22.40;95.10;;;;;;5024161;28;20540;-57
2023/11/04 12:06:36;;;;;;;1.43;0.87;;;22.40;95.00;;;;;;5027677;28;20466;-60
2023/11/04 12:09:03;;;;;;;1.13;0.70;;;22.40;95.00;;;;;;5027124;28;20474;-58
2023/11/04 12:11:30;;;;;;;1.20;0.90;;;22.40;95.00;;;;;;5029800;28;20509;-57
2023/11/04 12:13:57;;;;;;;1.77;1.00;;;22.40;95.00;;;;;;5028456;28;20460;-61
2023/11/04 12:16:24;;;;;;;1.00;0.90;;;22.40;95.00;;;;;;5029429;28;20788;-57
2023/11/04 12:18:53;;;;;;;1.73;0.93;;;22.40;95.00;;;;;;5025680;28;20458;-63
2023/11/04 12:21:20;;;;;;;2.23;0.90;;;22.40;95.00;;;;;;5028769;28;20462;-61
2023/11/04 12:23:49;;;;;;;2.87;1.10;;;22.40;94.90;;;;;;5028285;28;20466;-66
2023/11/04 12:26:16;;;;;;;1.00;0.70;;;22.40;95.00;;;;;;5025383;28;20457;-61
2023/11/04 12:28:44;;;;;;;1.83;0.90;;;22.40;95.00;;;;;;5026870;28;20494;-62
2023/11/04 12:31:12;;;;;;;1.27;0.83;;;22.50;95.00;;;;;;5029748;28;20581;-59
2023/11/04 12:33:40;;;;;;;1.47;0.90;;;22.50;95.00;;;;;;5029769;28;20968;-58
2023/11/04 12:36:10;;;;;;;1.07;0.80;;;22.50;95.00;;;;;;5027869;28;20958;-64
2023/11/04 12:38:37;;;;;;;4.13;1.10;;;22.50;93.10;;;;;;5026678;28;20464;-61
2023/11/04 12:41:05;;;;;;;1.13;0.97;;;22.40;90.50;;;;;;5026359;28;20488;-62
2023/11/04 12:43:33;;;;;;;3.67;1.27;;;22.30;87.10;;;;;;5026144;28;20477;-62
2023/11/04 12:46:00;;;;;;;1.80;0.80;;;22.20;82.70;;;;;;5028060;28;20466;-69
2023/11/04 12:51:49;;;;;;;1.97;1.43;;;22.10;83.10;;;;;;5017925;28;20453;-68
2023/11/04 12:54:15;;;;;;;2.00;1.00;;;22.00;78.00;;;;;;5026656;28;20461;-68
2023/11/04 12:56:43;;;;;;;3.17;1.03;;;22.00;78.60;;;;;;5028053;28;20458;-69